Time;durP1;ratioP1;P1;durP2;ratioP2;P2;SDS_P1;SDS_P2;PMS_P1;PMS_P2;Temp;Humidity;BMP_temperature;BMP_pressure;BME280_temperature;BME280_humidity;BME280_pressure;Samples;Min_cycle;Max_cycle;Signal;HPM_P1;HPM_P2
2023/08/28 00:04:23;;;;;;;6.25;5.65;;;;;;;-144.30;60.27;84080.66;5090051;28;20648;-51
2023/08/28 00:07:10;;;;;;;11.00;6.35;;;;;;;-144.30;61.10;84100.53;5090572;28;20206;-49
2023/08/28 00:10:17;;;;;;;9.38;6.55;;;;;;;-144.30;61.45;84114.44;5090328;28;20223;-51
2023/08/28 00:22:44;;;;;;;7.25;6.55;;;;;;;-144.30;62.05;84154.19;5087765;28;20202;-52
2023/08/28 00:25:59;;;;;;;6.55;5.78;;;;;;;-144.30;62.13;84112.47;5090295;28;20596;-50
2023/08/28 00:39:08;;;;;;;6.70;5.95;;;;;;;-144.30;63.63;84150.22;5087122;28;20630;-50
2023/08/28 00:42:06;;;;;;;7.43;6.70;;;;;;;-144.30;64.11;84186.00;5088550;28;20586;-50
2023/08/28 00:53:57;;;;;;;8.27;7.32;;;;;;;-144.30;65.74;84193.94;5068145;28;20211;-52
2023/08/28 01:00:00;;;;;;;10.07;7.45;;;;;;;-144.30;66.89;84191.94;5068044;28;20857;-51
2023/08/28 01:02:44;;;;;;;9.48;7.68;;;;;;;-144.30;67.39;84227.72;5069368;28;20594;-50
2023/08/28 01:05:47;;;;;;;7.00;6.50;;;;;;;-144.30;67.66;84191.94;5069135;28;20250;-52
2023/08/28 01:34:43;;;;;;;7.13;6.53;;;;;;;-144.30;70.87;84223.75;5124937;28;20214;-51
2023/08/28 01:41:11;;;;;;;8.85;7.30;;;;;;;-144.30;70.47;84231.69;5126977;28;20611;-51
2023/08/28 01:44:05;;;;;;;9.43;7.90;;;;;;;-144.30;70.64;84235.66;5125319;28;20193;-51
2023/08/28 01:46:52;;;;;;;9.45;7.40;;;;;;;-144.30;70.75;84255.53;5125678;28;20194;-51
2023/08/28 01:49:40;;;;;;;12.70;7.47;;;;;;;-144.30;70.74;84267.47;5123578;28;20214;-52
2023/08/28 01:56:14;;;;;;;9.63;8.13;;;;;;;-144.30;70.36;84156.19;5104147;28;20209;-50
2023/08/28 01:59:28;;;;;;;7.90;7.30;;;;;;;-144.30;70.41;84267.47;5070972;28;20194;-52
2023/08/28 02:08:18;;;;;;;9.63;8.68;;;;;;;-144.30;70.55;84255.53;5104890;28;20230;-53
2023/08/28 02:11:43;;;;;;;13.82;8.85;;;;;;;-144.30;71.14;84253.56;5104001;28;20252;-52
2023/08/28 02:14:25;;;;;;;10.45;8.30;;;;;;;-144.30;71.24;84243.63;5105714;28;20651;-51
2023/08/28 02:17:15;;;;;;;8.88;8.10;;;;;;;-144.30;71.52;84267.47;5105604;28;20195;-52
2023/08/28 02:23:21;;;;;;;9.32;8.48;;;;;;;-144.30;72.81;84301.25;5105148;28;20191;-50
2023/08/28 02:32:08;;;;;;;7.90;7.05;;;;;;;-144.30;72.49;84283.38;5094201;28;20691;-50
2023/08/28 02:35:10;;;;;;;10.50;8.05;;;;;;;-144.30;72.13;84295.28;5091314;28;20227;-50
2023/08/28 02:38:17;;;;;;;15.35;7.63;;;;;;;-144.30;72.12;84275.41;5091526;28;20195;-51
2023/08/28 02:41:15;;;;;;;8.85;8.13;;;;;;;-144.30;72.18;84259.50;5090689;28;20788;-51
2023/08/28 02:44:21;;;;;;;14.55;8.43;;;;;;;-144.30;71.70;84285.34;5089417;28;20203;-50
2023/08/28 02:56:42;;;;;;;8.75;7.97;;;;;;;-144.30;74.50;84350.94;5089121;28;20641;-52
2023/08/28 03:02:52;;;;;;;11.27;8.43;;;;;;;-144.30;73.67;84366.84;5090674;28;20204;-50
2023/08/28 03:08:29;;;;;;;10.80;8.20;;;;;;;-144.30;67.73;84350.94;5092107;28;20274;-51
2023/08/28 03:11:00;;;;;;;9.10;7.60;;;;;;;-144.30;66.58;84356.91;5109910;28;20202;-51
2023/08/28 03:13:38;;;;;;;9.48;6.90;;;;;;;-144.30;64.13;84323.13;5110262;28;20205;-50
2023/08/28 03:16:24;;;;;;;7.30;6.63;;;;;;;-144.30;63.47;84352.91;5111135;28;20557;-48
2023/08/28 03:19:09;;;;;;;8.00;6.30;;;;;;;-144.30;62.48;84386.72;5111698;28;20255;-51
2023/08/28 03:21:40;;;;;;;10.20;6.05;;;;;;;-144.30;62.14;84378.75;5070687;28;20220;-50
2023/08/28 03:24:25;;;;;;;8.48;5.93;;;;;;;-144.30;61.53;84394.66;5070661;28;20203;-50
2023/08/28 03:26:53;;;;;;;9.30;6.88;;;;;;;-144.30;61.54;84364.84;5066265;28;20200;-49
2023/08/28 03:29:42;;;;;;;6.82;6.13;;;;;;;-144.30;61.47;84408.56;5068688;28;20199;-51
2023/08/28 03:32:21;;;;;;;8.85;6.00;;;;;;;-144.30;61.60;84430.44;5061310;28;20258;-50
2023/08/28 03:38:01;;;;;;;7.95;6.68;;;;;;;-144.30;62.22;84436.38;5058020;28;20202;-50
2023/08/28 03:40:38;;;;;;;11.60;7.20;;;;;;;-144.30;62.25;84420.50;5067638;28;20216;-51
2023/08/28 03:43:11;;;;;;;9.02;6.60;;;;;;;-144.30;62.14;84446.31;5065148;28;20278;-52
2023/08/28 03:45:48;;;;;;;30.95;7.25;;;;;;;-144.30;62.06;84450.31;5069895;28;20200;-52
2023/08/28 03:48:25;;;;;;;16.23;7.00;;;;;;;-144.30;62.07;84410.56;5069453;28;20207;-52
2023/08/28 03:51:01;;;;;;;9.48;6.18;;;;;;;-144.30;62.71;84412.53;5066949;28;20195;-49
2023/08/28 03:53:29;;;;;;;12.10;6.68;;;;;;;-144.30;63.07;84458.25;5069191;28;20192;-50
2023/08/28 03:56:05;;;;;;;37.25;8.40;;;;;;;-144.30;63.53;84424.47;5069594;28;20192;-51
2023/08/28 03:58:46;;;;;;;22.42;7.80;;;;;;;-144.30;63.80;84446.31;5068876;28;20192;-52
2023/08/28 04:01:25;;;;;;;21.80;7.95;;;;;;;-144.30;63.55;84442.34;5068410;28;20764;-52
2023/08/28 04:04:12;;;;;;;15.75;6.72;;;;;;;-144.30;63.52;84418.50;5068453;28;20203;-49
2023/08/28 04:06:52;;;;;;;11.05;6.95;;;;;;;-144.30;63.89;84470.19;5069558;28;20282;-50
2023/08/28 04:09:31;;;;;;;14.57;7.03;;;;;;;-144.30;64.52;84456.25;5069768;28;20687;-49
2023/08/28 04:12:12;;;;;;;12.20;7.25;;;;;;;-144.30;65.25;84464.22;5068863;28;20784;-51
2023/08/28 04:14:49;;;;;;;9.82;7.88;;;;;;;-144.30;65.65;84478.13;5069431;28;20282;-50
2023/08/28 04:17:18;;;;;;;9.77;6.88;;;;;;;-144.30;65.74;84480.13;5068551;28;20519;-50
2023/08/28 04:19:50;;;;;;;7.97;7.28;;;;;;;-144.30;65.57;84438.38;5081042;28;20222;-50
2023/08/28 04:22:17;;;;;;;8.60;7.53;;;;;;;-144.30;64.90;84454.28;5107332;28;20248;-50
2023/08/28 04:25:03;;;;;;;9.35;6.95;;;;;;;-144.30;63.44;84446.31;5108853;28;20687;-50
2023/08/28 04:27:47;;;;;;;12.70;7.35;;;;;;;-144.30;61.34;84321.13;5106444;28;20659;-48
2023/08/28 04:30:25;;;;;;;13.82;7.63;;;;;;;-144.30;58.69;84186.00;5108772;28;20578;-50
2023/08/28 04:33:07;;;;;;;18.90;7.47;;;;;;;-144.30;56.05;84050.84;5108523;28;20198;-48
2023/08/28 04:35:41;;;;;;;10.60;9.10;;;;;;;-144.30;53.63;83913.75;5109293;28;20194;-50
2023/08/28 04:38:14;;;;;;;20.10;7.03;;;;;;;-144.30;52.53;83881.97;5109578;28;20208;-49
2023/08/28 04:40:56;;;;;;;8.43;6.72;;;;;;;-144.30;50.65;83760.75;5109466;28;20239;-52
2023/08/28 04:43:34;;;;;;;13.52;7.57;;;;;;;-144.30;48.66;83663.38;5107988;28;20285;-52
2023/08/28 04:46:09;;;;;;;9.95;7.95;;;;;;;-144.30;45.90;83476.63;5107397;28;20248;-50
2023/08/28 04:49:03;;;;;;;16.20;11.43;;;;;;;-144.30;44.25;83339.53;5107264;28;20198;-50
2023/08/28 04:52:04;;;;;;;9.38;8.50;;;;;;;-144.30;42.75;83178.59;5108689;28;20194;-50
2023/08/28 05:00:51;;;;;;;11.52;7.45;;;;;;;-144.30;39.53;82862.75;5106230;28;20226;-51
2023/08/28 05:06:34;;;;;;;13.15;6.70;;;;;;;-144.30;37.89;82725.69;5108315;28;20209;-52
2023/08/28 05:15:44;;;;;;;7.05;6.10;;;;;;;-144.30;34.73;82225.13;5105326;28;20658;-52
2023/08/28 05:18:18;;;;;;;13.70;7.13;;;;;;;-144.30;34.53;82189.38;5109596;28;20194;-53
2023/08/28 05:21:05;;;;;;;9.80;8.63;;;;;;;-144.30;33.99;82040.44;5109086;28;20286;-53
2023/08/28 05:24:25;;;;;;;;;;;;;;;;;;;;;
2023/08/28 05:33:34;;;;;;;7.40;6.85;;;;;;;-144.30;33.34;81982.84;5099528;28;20588;-52
2023/08/28 05:36:38;;;;;;;8.23;7.40;;;;;;;-144.30;33.59;82006.69;5108534;28;20204;-52
2023/08/28 05:43:15;;;;;;;;;;;;;;;;;;;;;
2023/08/28 06:01:29;;;;;;;7.45;6.70;;;;;;;-144.30;29.95;80972.13;5107826;28;20217;-50
2023/08/28 06:04:02;;;;;;;9.65;7.57;;;;;;;-144.30;30.05;81160.75;5108752;28;20629;-52
2023/08/28 06:06:33;;;;;;;10.60;5.97;;;;;;;-144.30;30.41;81200.47;5110731;28;20193;-52
2023/08/28 06:09:13;;;;;;;6.00;5.45;;;;;;;-144.30;30.54;81269.94;5112709;28;20289;-51
2023/08/28 06:11:42;;;;;;;10.45;5.80;;;;;;;-144.30;31.40;81498.31;5112267;28;20197;-51
2023/08/28 06:14:13;;;;;;;13.40;9.40;;;;;;;-144.30;31.52;81512.19;5110739;28;20193;-52
2023/08/28 06:16:44;;;;;;;11.57;6.07;;;;;;;-144.30;31.32;81414.91;5112961;28;20670;-54
2023/08/28 06:19:15;;;;;;;10.57;5.28;;;;;;;-144.30;30.74;81309.66;5112291;28;20237;-53
2023/08/28 06:21:45;;;;;;;6.63;5.88;;;;;;;-144.30;30.93;81265.97;5112639;28;20225;-54
2023/08/28 06:24:14;;;;;;;6.10;5.50;;;;;;;-144.30;30.35;81220.31;5110054;28;20201;-54
2023/08/28 06:26:45;;;;;;;6.78;6.18;;;;;;;-144.30;30.42;81256.06;5091852;28;20216;-53
2023/08/28 06:29:14;;;;;;;11.43;6.70;;;;;;;-144.30;30.29;81232.22;5091900;28;20201;-54
2023/08/28 06:31:42;;;;;;;9.75;5.97;;;;;;;-144.30;30.09;81152.81;5112082;28;20190;-54
2023/08/28 06:34:14;;;;;;;10.32;6.55;;;;;;;-144.30;29.46;80966.19;5112087;28;20285;-52
2023/08/28 06:36:45;;;;;;;15.13;6.78;;;;;;;-144.30;28.75;80785.50;5105709;28;20198;-51
2023/08/28 06:39:13;;;;;;;12.75;6.45;;;;;;;-144.30;28.08;80573.09;5111751;28;20198;-52
2023/08/28 06:41:42;;;;;;;12.55;7.40;;;;;;;-144.30;27.99;80632.66;5112228;28;20718;-52
2023/08/28 06:44:12;;;;;;;9.60;6.85;;;;;;;-144.30;29.00;81093.25;5112032;28;20707;-51
2023/08/28 06:46:44;;;;;;;11.80;7.10;;;;;;;-144.30;28.79;80926.47;5112037;28;20654;-51
2023/08/28 06:49:14;;;;;;;7.88;6.88;;;;;;;-144.30;28.45;80729.91;5111947;28;20691;-53
2023/08/28 06:51:44;;;;;;;10.18;6.97;;;;;;;-144.30;28.15;80622.72;5111773;28;20622;-54
2023/08/28 06:54:14;;;;;;;11.45;6.82;;;;;;;-144.30;28.66;80831.16;5112650;28;20563;-54
2023/08/28 06:56:45;;;;;;;12.70;7.80;;;;;;;-144.30;28.48;80783.53;5112069;28;20241;-54
2023/08/28 06:59:17;;;;;;;15.02;7.35;;;;;;;-144.30;27.71;80477.81;5111914;28;20237;-52
2023/08/28 07:01:50;;;;;;;8.40;6.78;;;;;;;-144.30;27.85;80575.06;5111831;28;20214;-52
2023/08/28 07:04:24;;;;;;;8.60;6.18;;;;;;;-144.30;27.56;80457.94;5112422;28;20205;-52
2023/08/28 07:06:52;;;;;;;8.82;6.72;;;;;;;-144.30;27.17;80243.56;5111570;28;20303;-52
2023/08/28 07:09:19;;;;;;;7.47;6.72;;;;;;;-144.30;27.17;80118.53;5111512;28;20202;-51
2023/08/28 07:11:53;;;;;;;7.00;6.50;;;;;;;-144.30;27.01;80191.97;5111790;28;20202;-51
2023/08/28 07:14:28;;;;;;;9.45;6.70;;;;;;;-144.30;27.18;80259.44;5110958;28;20189;-50
2023/08/28 07:16:58;;;;;;;13.63;6.53;;;;;;;-144.30;27.14;80096.69;5110316;28;20194;-52
2023/08/28 07:19:33;;;;;;;10.88;6.18;;;;;;;-144.30;26.75;80188.00;5110674;28;20279;-53
2023/08/28 07:22:02;;;;;;;7.78;5.95;;;;;;;-144.30;27.37;80315.03;5090774;28;20321;-51
2023/08/28 07:24:35;;;;;;;8.77;6.00;;;;;;;-144.30;27.27;80366.63;5091254;28;20195;-51
2023/08/28 07:27:02;;;;;;;8.68;5.70;;;;;;;-144.30;26.99;80219.75;5091031;28;20191;-52
2023/08/28 07:29:34;;;;;;;6.55;5.78;;;;;;;-144.30;27.05;80219.75;5091196;28;20199;-51
2023/08/28 07:32:08;;;;;;;7.93;6.20;;;;;;;-144.30;26.79;80178.06;5091103;28;20641;-54
2023/08/28 07:34:38;;;;;;;9.60;6.35;;;;;;;-144.30;27.22;80287.25;5090676;28;20228;-53
2023/08/28 07:37:09;;;;;;;8.30;5.75;;;;;;;-144.30;27.33;80400.38;5090989;28;20206;-54
2023/08/28 07:39:41;;;;;;;7.32;6.80;;;;;;;-144.30;27.57;80444.06;5091024;28;20195;-54
2023/08/28 07:42:10;;;;;;;8.43;6.50;;;;;;;-144.30;27.23;80311.06;5091005;28;20602;-52
2023/08/28 07:44:39;;;;;;;7.75;6.03;;;;;;;-144.30;27.11;80467.88;5091012;28;20263;-51
2023/08/28 07:47:12;;;;;;;6.05;5.65;;;;;;;-144.30;26.80;80356.72;5090613;28;20667;-51
2023/08/28 07:49:42;;;;;;;10.48;5.97;;;;;;;-144.30;26.79;80366.63;5090648;28;20199;-53
2023/08/28 07:52:12;;;;;;;6.05;5.55;;;;;;;-144.30;26.73;80215.78;5111223;28;20190;-50
2023/08/28 07:54:42;;;;;;;7.63;6.18;;;;;;;-144.30;26.30;80172.09;5110995;28;20194;-52
2023/08/28 07:57:23;;;;;;;6.78;6.10;;;;;;;-144.30;26.09;79957.75;5108451;28;20229;-53
2023/08/28 07:59:53;;;;;;;6.57;5.90;;;;;;;-144.30;25.81;79866.44;5109525;28;20260;-54
2023/08/28 08:02:29;;;;;;;7.05;5.68;;;;;;;-144.30;25.17;79642.19;5109010;28;20608;-51
2023/08/28 08:05:00;;;;;;;6.18;5.75;;;;;;;-144.30;25.20;79457.59;5110571;28;20204;-52
2023/08/28 08:07:34;;;;;;;7.85;6.05;;;;;;;-144.30;24.66;79169.88;5110740;28;20204;-51
2023/08/28 08:10:06;;;;;;;7.18;6.47;;;;;;;-144.30;24.93;79517.16;5091686;28;20205;-52
2023/08/28 08:12:38;;;;;;;7.75;5.70;;;;;;;-144.30;24.76;79425.88;5090475;28;20191;-51
2023/08/28 08:15:09;;;;;;;6.85;5.82;;;;;;;-144.30;24.50;79346.47;5089960;28;20665;-52
2023/08/28 08:17:43;;;;;;;7.95;5.85;;;;;;;-144.30;24.35;79300.84;5090360;28;20241;-54
2023/08/28 08:20:17;;;;;;;6.47;5.97;;;;;;;-144.30;24.45;79292.91;5089646;28;20730;-54
2023/08/28 08:22:46;;;;;;;7.88;6.00;;;;;;;-144.30;24.37;79128.19;5110269;28;20704;-55
2023/08/28 08:25:16;;;;;;;7.28;6.55;;;;;;;-144.30;24.34;79275.03;5110317;28;20255;-54
2023/08/28 08:27:47;;;;;;;9.60;5.57;;;;;;;-144.30;24.25;79084.53;5104559;28;20650;-54
2023/08/28 08:30:18;;;;;;;7.63;5.80;;;;;;;-144.30;24.16;79052.78;5108942;28;20193;-53
2023/08/28 08:32:51;;;;;;;5.90;5.40;;;;;;;-144.30;23.72;78711.50;5109471;28;20229;-54
2023/08/28 08:35:23;;;;;;;8.00;6.30;;;;;;;-144.30;23.53;78509.16;5110138;28;20494;-54
2023/08/28 08:37:56;;;;;;;11.18;6.35;;;;;;;-144.30;23.61;78917.88;5110123;28;20194;-54
2023/08/28 08:40:29;;;;;;;6.75;6.20;;;;;;;-144.30;23.79;78830.56;5105372;28;20191;-51
2023/08/28 08:43:00;;;;;;;7.30;5.95;;;;;;;-144.30;23.76;78806.75;5106981;28;20217;-51
2023/08/28 08:45:29;;;;;;;7.72;6.97;;;;;;;-144.30;23.78;78711.50;5109278;28;20277;-52
2023/08/28 08:48:02;;;;;;;11.35;5.97;;;;;;;-144.30;23.71;78993.25;5108413;28;20242;-52
2023/08/28 08:50:34;;;;;;;11.20;6.78;;;;;;;-144.30;24.26;79544.94;5109754;28;20190;-51
2023/08/28 08:53:16;;;;;;;7.10;6.05;;;;;;;-144.30;24.27;79425.88;5107442;28;20194;-51
2023/08/28 08:55:51;;;;;;;6.75;6.15;;;;;;;-144.30;24.66;79634.25;5106236;28;20222;-51
2023/08/28 08:58:27;;;;;;;8.32;6.50;;;;;;;-144.30;24.98;79894.22;5107747;28;20582;-52
2023/08/28 09:01:02;;;;;;;7.57;6.50;;;;;;;-144.30;24.59;79908.13;5109387;28;20185;-51
2023/08/28 09:03:32;;;;;;;11.43;7.05;;;;;;;-144.30;25.11;79781.09;5109196;28;20642;-52
2023/08/28 09:06:05;;;;;;;7.10;6.20;;;;;;;-144.30;24.83;79755.31;5106845;28;20582;-51
2023/08/28 09:08:36;;;;;;;7.30;6.10;;;;;;;-144.30;24.70;79870.41;5109113;28;20247;-50
2023/08/28 09:11:06;;;;;;;9.07;5.90;;;;;;;-144.30;24.80;79959.72;5109103;28;20201;-51
2023/08/28 09:13:37;;;;;;;16.02;6.15;;;;;;;-144.30;24.79;79878.34;5109257;28;20190;-51
2023/08/28 09:16:09;;;;;;;14.48;5.90;;;;;;;-144.30;24.62;79527.06;5108928;28;20657;-51
2023/08/28 09:18:44;;;;;;;18.70;6.35;;;;;;;-144.30;24.06;79282.97;5106522;28;20273;-51
2023/08/28 09:21:17;;;;;;;6.30;5.75;;;;;;;-144.30;23.52;79227.41;5109119;28;20267;-51
2023/08/28 09:23:51;;;;;;;8.18;5.93;;;;;;;-144.30;24.03;79374.25;5109065;28;20190;-51
2023/08/28 09:26:24;;;;;;;8.32;5.65;;;;;;;-144.30;24.24;79513.19;5106903;28;20555;-51
2023/08/28 09:29:08;;;;;;;9.13;5.97;;;;;;;-144.30;24.05;79465.56;5103836;28;20198;-54
2023/08/28 09:31:39;;;;;;;8.52;5.63;;;;;;;-144.30;24.17;79406.00;5109193;28;20591;-54
2023/08/28 09:34:11;;;;;;;7.15;5.82;;;;;;;-144.30;23.96;79215.50;5109508;28;20205;-52
2023/08/28 09:36:43;;;;;;;8.13;5.78;;;;;;;-144.30;24.04;79354.41;5109743;28;20356;-55
2023/08/28 09:39:12;;;;;;;6.40;5.85;;;;;;;-144.30;23.60;78890.09;5109340;28;20255;-55
2023/08/28 09:41:49;;;;;;;10.00;5.68;;;;;;;-144.30;23.47;78731.34;5111239;28;20209;-52
2023/08/28 09:44:23;;;;;;;6.93;5.95;;;;;;;-144.30;23.67;78999.22;5112827;28;20284;-52
2023/08/28 09:46:57;;;;;;;8.32;5.35;;;;;;;-144.30;24.13;79282.97;5112587;28;20189;-54
2023/08/28 09:49:27;;;;;;;6.53;5.82;;;;;;;-144.30;24.95;79753.31;5112598;28;20190;-54
2023/08/28 09:52:03;;;;;;;9.38;6.00;;;;;;;-144.30;24.56;79669.97;5112633;28;20190;-54
2023/08/28 09:54:36;;;;;;;6.00;5.60;;;;;;;-144.30;24.47;79697.75;5112958;28;20220;-52
2023/08/28 09:57:17;;;;;;;13.90;6.20;;;;;;;-144.30;24.94;79715.59;5112788;28;20743;-52
2023/08/28 09:59:46;;;;;;;7.28;5.53;;;;;;;-144.30;25.65;80176.09;5112997;28;20277;-52
2023/08/28 10:02:24;;;;;;;8.05;5.95;;;;;;;-144.30;25.88;80283.28;5113076;28;20257;-51
2023/08/28 10:04:58;;;;;;;12.10;5.65;;;;;;;-144.30;26.55;80767.63;5113376;28;20723;-53
2023/08/28 10:07:38;;;;;;;5.97;5.47;;;;;;;-144.30;27.59;81142.88;5113427;28;20278;-52
2023/08/28 10:10:16;;;;;;;5.82;5.45;;;;;;;-144.30;28.51;81387.09;5113141;28;20202;-50
2023/08/28 10:12:46;;;;;;;5.70;5.15;;;;;;;-144.30;29.27;81577.72;5113154;28;20186;-54
2023/08/28 10:15:20;;;;;;;15.02;6.47;;;;;;;-144.30;30.23;81784.25;5113767;28;20577;-54
2023/08/28 10:17:52;;;;;;;6.35;5.82;;;;;;;-144.30;30.69;81931.22;5112959;28;20255;-53
2023/08/28 10:20:26;;;;;;;7.47;6.47;;;;;;;-144.30;31.09;81994.75;5112929;28;20771;-54
2023/08/28 10:22:59;;;;;;;8.18;6.20;;;;;;;-144.30;31.14;81994.75;5112799;28;20218;-54
2023/08/28 10:25:32;;;;;;;8.77;5.85;;;;;;;-144.30;31.30;82046.41;5112642;28;20206;-54
2023/08/28 10:28:04;;;;;;;6.70;6.20;;;;;;;-144.30;31.85;82209.25;5112552;28;20583;-54
2023/08/28 10:30:36;;;;;;;6.25;5.85;;;;;;;-144.30;32.16;82282.75;5112869;28;20201;-54
2023/08/28 10:33:12;;;;;;;6.90;5.60;;;;;;;-144.30;32.41;82239.03;5112587;28;20190;-53
2023/08/28 10:35:47;;;;;;;9.88;5.90;;;;;;;-144.30;32.03;82229.09;5112738;28;20201;-53
2023/08/28 10:38:18;;;;;;;10.00;6.30;;;;;;;-144.30;32.39;82243.00;5112810;28;20198;-53
2023/08/28 10:40:49;;;;;;;6.55;5.82;;;;;;;-144.30;32.23;82276.78;5112495;28;20194;-53
2023/08/28 10:43:21;;;;;;;7.40;6.30;;;;;;;-144.30;32.55;82245.00;5112283;28;20317;-53
2023/08/28 10:45:55;;;;;;;7.18;6.47;;;;;;;-144.30;32.34;82165.56;5111861;28;20658;-54
2023/08/28 10:48:27;;;;;;;6.97;6.25;;;;;;;-144.30;32.61;82187.41;5112512;28;20634;-53
2023/08/28 10:51:04;;;;;;;5.95;5.55;;;;;;;-144.30;32.50;82173.50;5112377;28;20195;-53
2023/08/28 10:53:38;;;;;;;5.68;5.18;;;;;;;-144.30;32.34;82153.63;5111814;28;20196;-51
2023/08/28 10:56:11;;;;;;;5.78;5.43;;;;;;;-144.30;31.96;82207.25;5112331;28;20237;-53
2023/08/28 10:58:45;;;;;;;6.38;5.57;;;;;;;-144.30;32.01;82183.44;5112165;28;20236;-51
2023/08/28 11:01:19;;;;;;;8.25;5.25;;;;;;;-144.30;31.88;82207.25;5112509;28;20661;-51
2023/08/28 11:04:02;;;;;;;7.70;5.85;;;;;;;-144.30;32.18;82211.25;5111618;28;20217;-51
2023/08/28 11:06:43;;;;;;;5.72;5.32;;;;;;;-144.30;32.83;82221.16;5112121;28;20820;-54
2023/08/28 11:09:36;;;;;;;6.45;5.68;;;;;;;-144.30;32.44;82237.06;5111695;28;20277;-54
2023/08/28 11:12:28;;;;;;;8.57;5.18;;;;;;;-144.30;32.03;82221.16;5111918;28;20255;-54
2023/08/28 11:15:08;;;;;;;5.63;5.13;;;;;;;-144.30;31.93;82268.84;5111658;28;20190;-53
2023/08/28 11:17:37;;;;;;;5.20;4.75;;;;;;;-144.30;31.82;82248.97;5091516;28;20198;-53
2023/08/28 11:20:13;;;;;;;5.75;5.30;;;;;;;-144.30;31.10;82201.31;5091029;28;20581;-54
2023/08/28 11:22:50;;;;;;;5.82;5.28;;;;;;;-144.30;30.98;82245.00;5091417;28;20222;-53
2023/08/28 11:25:40;;;;;;;7.35;5.32;;;;;;;-144.30;30.52;82225.13;5091197;28;20240;-53
2023/08/28 11:28:29;;;;;;;6.13;4.60;;;;;;;-144.30;31.61;82250.97;5091233;28;20206;-53
2023/08/28 11:31:07;;;;;;;7.90;5.47;;;;;;;-144.30;31.44;82193.38;5091222;28;20286;-54
2023/08/28 11:33:40;;;;;;;5.68;5.20;;;;;;;-144.30;31.13;82205.28;5110865;28;20635;-52
2023/08/28 11:36:14;;;;;;;5.57;5.07;;;;;;;-144.30;30.97;82213.22;5111308;28;20285;-50
2023/08/28 11:38:45;;;;;;;8.27;5.00;;;;;;;-144.30;30.79;82195.34;5111439;28;20244;-54
2023/08/28 11:41:18;;;;;;;7.90;4.60;;;;;;;-144.30;30.40;82209.25;5110923;28;20604;-54
2023/08/28 11:43:51;;;;;;;5.75;5.10;;;;;;;-144.30;30.16;82209.25;5111269;28;20271;-51
2023/08/28 11:46:30;;;;;;;5.03;4.63;;;;;;;-144.30;30.35;82201.31;5104377;28;20565;-51
2023/08/28 11:49:00;;;;;;;5.10;4.68;;;;;;;-144.30;30.05;82233.09;5106877;28;20293;-51
2023/08/28 11:51:36;;;;;;;8.13;4.32;;;;;;;-144.30;30.20;82286.72;5110653;28;20242;-50
2023/08/28 11:54:09;;;;;;;13.77;4.90;;;;;;;-144.30;29.75;82312.53;5108615;28;20186;-51
2023/08/28 11:56:42;;;;;;;5.55;4.65;;;;;;;-144.30;29.56;82362.19;5110865;28;20640;-53
2023/08/28 11:59:13;;;;;;;5.07;4.60;;;;;;;-144.30;29.52;82300.63;5110469;28;20298;-51
2023/08/28 12:01:48;;;;;;;8.23;4.45;;;;;;;-144.30;29.46;82320.47;5107974;28;20226;-51
2023/08/28 12:04:19;;;;;;;4.93;4.53;;;;;;;-144.30;29.97;82264.88;5109450;28;20218;-50
2023/08/28 12:06:50;;;;;;;5.15;4.78;;;;;;;-144.30;30.21;82250.97;5110675;28;20606;-51
2023/08/28 12:09:25;;;;;;;7.13;4.60;;;;;;;-144.30;30.21;82276.78;5109459;28;20236;-52
2023/08/28 12:11:58;;;;;;;4.68;4.43;;;;;;;-144.30;30.12;82288.69;5110328;28;20217;-52
2023/08/28 12:14:27;;;;;;;5.32;4.43;;;;;;;-144.30;30.24;82310.53;5110779;28;20297;-54
2023/08/28 12:17:05;;;;;;;4.78;4.40;;;;;;;-144.30;30.10;82233.09;5110150;28;20191;-54
2023/08/28 12:19:38;;;;;;;4.40;4.10;;;;;;;-144.30;30.15;82322.47;5109977;28;20241;-51
2023/08/28 12:22:15;;;;;;;6.32;4.45;;;;;;;-144.30;30.39;82314.50;5110165;28;20198;-51
2023/08/28 12:24:52;;;;;;;5.55;5.05;;;;;;;-144.30;30.50;82348.28;5110602;28;20198;-53
2023/08/28 12:27:35;;;;;;;4.25;3.95;;;;;;;-144.30;29.37;82290.69;5110653;28;20690;-53
2023/08/28 12:30:11;;;;;;;4.80;4.50;;;;;;;-144.30;29.68;82308.56;5108045;28;20198;-53
2023/08/28 12:32:41;;;;;;;4.65;4.35;;;;;;;-144.30;29.15;82328.41;5107770;28;20584;-53
2023/08/28 12:35:14;;;;;;;4.55;4.15;;;;;;;-144.30;28.37;82346.28;5104717;28;20203;-53
2023/08/28 12:37:43;;;;;;;4.95;4.03;;;;;;;-144.30;28.46;82316.50;5093098;28;20282;-53
2023/08/28 12:40:14;;;;;;;5.00;4.35;;;;;;;-144.30;27.96;82324.44;5108717;28;20263;-53
2023/08/28 12:42:44;;;;;;;4.35;4.03;;;;;;;-144.30;27.57;82310.53;5107444;28;20260;-53
2023/08/28 12:45:14;;;;;;;5.03;4.63;;;;;;;-144.30;27.13;82292.66;5104951;28;20225;-53
2023/08/28 12:47:44;;;;;;;6.07;4.50;;;;;;;-144.30;27.38;82274.78;5109680;28;20191;-53
2023/08/28 12:50:16;;;;;;;5.32;4.35;;;;;;;-144.30;27.44;82254.94;5109425;28;20200;-52
2023/08/28 12:52:44;;;;;;;5.15;4.65;;;;;;;-144.30;27.38;82264.88;5109375;28;20198;-52
2023/08/28 12:55:17;;;;;;;7.35;4.45;;;;;;;-144.30;26.87;82264.88;5109106;28;20194;-53
2023/08/28 12:57:51;;;;;;;4.57;4.28;;;;;;;-144.30;26.92;82761.44;5109560;28;20210;-53
2023/08/28 13:00:24;;;;;;;5.10;4.50;;;;;;;-144.30;27.15;82252.94;5107665;28;20201;-53
2023/08/28 13:02:54;;;;;;;8.20;4.13;;;;;;;-144.30;26.82;82250.97;5104721;28;20716;-51
2023/08/28 13:05:27;;;;;;;4.35;4.05;;;;;;;-144.30;27.08;82280.75;5107164;28;20678;-54
2023/08/28 13:07:56;;;;;;;4.22;3.90;;;;;;;-144.30;27.75;82296.63;5108845;28;20198;-51
2023/08/28 13:10:32;;;;;;;4.63;4.22;;;;;;;-144.30;28.10;82256.91;5109245;28;20187;-54
2023/08/28 13:13:07;;;;;;;5.47;4.20;;;;;;;-144.30;28.42;82278.75;5109237;28;20224;-54
2023/08/28 13:15:37;;;;;;;5.45;4.10;;;;;;;-144.30;28.51;82262.88;5106711;28;20251;-52
2023/08/28 13:18:07;;;;;;;4.65;4.20;;;;;;;-144.30;28.43;82268.84;5106384;28;20273;-52
2023/08/28 13:20:41;;;;;;;7.22;4.47;;;;;;;-144.30;28.04;82262.88;5109027;28;20229;-51
2023/08/28 13:23:13;;;;;;;4.28;3.97;;;;;;;-144.30;28.76;82258.91;5106823;28;20311;-52
2023/08/28 13:25:46;;;;;;;5.82;4.68;;;;;;;-144.30;28.79;82239.03;5109325;28;20243;-51
2023/08/28 13:28:21;;;;;;;4.80;4.40;;;;;;;-144.30;28.92;82233.09;5109199;28;20549;-50
2023/08/28 13:30:52;;;;;;;6.15;5.60;;;;;;;-144.30;29.31;82248.97;5106610;28;20204;-52
2023/08/28 13:33:26;;;;;;;5.90;5.10;;;;;;;-144.30;28.92;82121.88;5107574;28;20271;-53
2023/08/28 13:35:56;;;;;;;12.13;4.82;;;;;;;-144.30;28.97;82272.81;5107568;28;20190;-53
2023/08/28 13:38:37;;;;;;;8.00;4.50;;;;;;;-144.30;29.14;82199.31;5109570;28;20194;-52
2023/08/28 13:41:32;;;;;;;5.10;4.10;;;;;;;-144.30;29.12;82284.72;5106063;28;20200;-53
2023/08/28 13:46:49;;;;;;;9.13;4.47;;;;;;;-144.30;28.37;82227.13;5106026;28;20747;-54
2023/08/28 13:49:19;;;;;;;4.25;3.90;;;;;;;-144.30;28.46;82241.03;5109064;28;20194;-53
2023/08/28 13:51:50;;;;;;;7.85;4.38;;;;;;;-144.30;28.38;82260.88;5106206;28;20198;-51
2023/08/28 13:54:19;;;;;;;4.15;3.58;;;;;;;-144.30;28.17;82243.00;5104473;28;20206;-50
2023/08/28 13:56:51;;;;;;;3.90;3.60;;;;;;;-144.30;28.39;82276.78;5096772;28;20226;-51
2023/08/28 13:59:23;;;;;;;4.13;3.75;;;;;;;-144.30;28.95;82284.72;5109093;28;20201;-51
2023/08/28 14:01:52;;;;;;;8.35;4.00;;;;;;;-144.30;28.39;82254.94;5108334;28;20210;-51
2023/08/28 14:04:24;;;;;;;7.95;4.05;;;;;;;-144.30;28.69;82248.97;5108933;28;20237;-52
2023/08/28 14:06:54;;;;;;;5.93;4.50;;;;;;;-144.30;29.12;82233.09;5109034;28;20203;-52
2023/08/28 14:09:28;;;;;;;4.25;3.88;;;;;;;-144.30;29.03;82270.81;5107663;28;20215;-51
2023/08/28 14:12:03;;;;;;;4.53;4.13;;;;;;;-144.30;28.96;82252.94;5108043;28;20266;-50
2023/08/28 14:14:34;;;;;;;4.38;3.90;;;;;;;-144.30;28.30;82215.22;5108960;28;20230;-50
2023/08/28 14:17:05;;;;;;;4.65;4.20;;;;;;;-144.30;28.04;82237.06;5109455;28;20205;-52
2023/08/28 14:19:40;;;;;;;4.60;3.95;;;;;;;-144.30;27.99;82245.00;5108907;28;20267;-51
2023/08/28 14:22:12;;;;;;;6.80;3.50;;;;;;;-144.30;27.37;82225.13;5108618;28;20221;-50
2023/08/28 14:24:41;;;;;;;4.10;3.80;;;;;;;-144.30;27.68;82147.69;5109103;28;20610;-52
2023/08/28 14:27:13;;;;;;;3.90;3.70;;;;;;;-144.30;27.12;82219.19;5109608;28;20294;-52